KFOE/FOE METAR and TAF weather

Enter ICAO airport designator
Station Type Date Time Source
KFOE METAR 2023/02/06 18:53 UTC NOAA

KFOE 061853Z 19024G39KT 10SM CLR 18/08 A2964 RMK AO2 PK WND 19041/1754 SLP036 T01780083 $


Station Type Date Time Source
KFOE Decoded METAR 2023/02/06 18:53 UTC NOAA

FORBES FIELD, KS, United States (KFOE) 38-56N 95-39W 320M
Feb 06, 2023 - 01:53 PM EST / 2023.02.06 1853 UTC
Wind: from the S (190 degrees) at 28 MPH (24 KT) gusting to 45 MPH (39 KT):0
Visibility: 10 mile(s):0
Sky conditions: clear
Temperature: 64.0 F (17.8 C)
Dew Point: 46.9 F (8.3 C)
Relative Humidity: 53%
Pressure (altimeter): 29.64 in. Hg (1003 hPa)
ob: KFOE 061853Z 19024G39KT 10SM CLR 18/08 A2964 RMK AO2 PK WND 19041/1754 SLP036 T01780083
cycle: 19

Station Type Date Time Source
KFOE TAF 2023/02/06 18:51 UTC NOAA

KFOE 061720Z 0618/0718 19020G33KT P6SM BKN250
FM062200 23015KT P6SM FEW150
FM070100 28010KT P6SM FEW150

Example: see airport list